Time;durP1;ratioP1;P1;durP2;ratioP2;P2;SDS_P1;SDS_P2;PMS_P1;PMS_P2;Temp;Humidity;BMP_temperature;BMP_pressure;BME280_temperature;BME280_humidity;BME280_pressure;Samples;Min_cycle;Max_cycle;Signal;HPM_P1;HPM_P2
2023/05/07 00:01:43;;;;;;;23.60;16.00;;;11.30;99.90;;;;;;4995071;28;20046;-66
2023/05/07 00:04:08;;;;;;;26.08;16.65;;;11.30;99.90;;;;;;4994529;28;20050;-66
2023/05/07 00:06:34;;;;;;;23.35;15.85;;;11.30;99.90;;;;;;4994489;28;20108;-66
2023/05/07 00:09:00;;;;;;;27.75;16.77;;;11.30;99.90;;;;;;4994720;28;20047;-66
2023/05/07 00:11:27;;;;;;;25.25;16.58;;;11.30;99.90;;;;;;4995254;28;20450;-66
2023/05/07 00:13:53;;;;;;;26.20;16.58;;;11.20;99.90;;;;;;4993431;28;20050;-66
2023/05/07 00:16:19;;;;;;;25.52;16.73;;;11.20;99.90;;;;;;4993695;28;20371;-66
2023/05/07 00:18:45;;;;;;;25.77;17.33;;;11.20;99.90;;;;;;4994594;28;20073;-67
2023/05/07 00:21:11;;;;;;;25.98;17.10;;;11.20;99.90;;;;;;4994941;28;20390;-66
2023/05/07 00:23:36;;;;;;;25.95;17.02;;;11.20;99.90;;;;;;4993991;28;20406;-66
2023/05/07 00:26:03;;;;;;;26.50;17.13;;;11.20;99.90;;;;;;4993093;28;20042;-67
2023/05/07 00:28:28;;;;;;;25.13;16.75;;;11.30;99.90;;;;;;4994169;28;20053;-66
2023/05/07 00:30:54;;;;;;;24.65;17.35;;;11.20;99.90;;;;;;4994229;28;20125;-66
2023/05/07 00:33:20;;;;;;;25.25;16.42;;;11.20;99.90;;;;;;4994217;28;20046;-66
2023/05/07 00:35:46;;;;;;;26.95;17.25;;;11.30;99.90;;;;;;4994697;28;20046;-65
2023/05/07 00:38:12;;;;;;;25.92;17.25;;;11.30;99.90;;;;;;4994062;28;20043;-66
2023/05/07 00:40:37;;;;;;;30.27;18.10;;;11.30;99.90;;;;;;4994131;28;20045;-66
2023/05/07 00:43:03;;;;;;;25.60;18.50;;;11.30;99.90;;;;;;4994201;28;20468;-66
2023/05/07 00:45:29;;;;;;;26.17;17.92;;;11.30;99.90;;;;;;4994186;28;20101;-66
2023/05/07 00:48:00;;;;;;;29.40;18.52;;;11.30;99.90;;;;;;4998150;28;20117;-67
2023/05/07 00:50:27;;;;;;;28.27;19.52;;;11.30;99.90;;;;;;4997107;28;20449;-68
2023/05/07 00:52:53;;;;;;;29.50;20.98;;;11.30;99.90;;;;;;4998043;28;20054;-66
2023/05/07 00:55:20;;;;;;;29.80;19.83;;;11.30;99.90;;;;;;4996786;28;20086;-66
2023/05/07 00:57:46;;;;;;;25.92;19.42;;;11.30;99.90;;;;;;4997798;28;20406;-66
2023/05/07 01:00:12;;;;;;;31.05;20.67;;;11.30;99.90;;;;;;4998356;28;20046;-66
2023/05/07 01:02:41;;;;;;;29.67;21.08;;;11.40;99.90;;;;;;4998339;28;20046;-67
2023/05/07 01:05:12;;;;;;;26.80;19.80;;;11.30;99.90;;;;;;4997763;28;20050;-66
2023/05/07 01:07:40;;;;;;;33.08;21.20;;;11.30;99.90;;;;;;4997594;28;20380;-66
2023/05/07 01:10:07;;;;;;;30.67;21.50;;;11.40;99.90;;;;;;4996721;28;20053;-66
2023/05/07 01:12:35;;;;;;;32.15;21.63;;;11.30;99.90;;;;;;4997637;28;20047;-67
2023/05/07 01:15:01;;;;;;;32.60;21.85;;;11.40;99.90;;;;;;4998397;28;20390;-66
2023/05/07 01:17:27;;;;;;;35.28;22.42;;;11.40;99.90;;;;;;4997442;28;20046;-67
2023/05/07 01:19:53;;;;;;;32.03;22.08;;;11.40;99.90;;;;;;4997498;28;20042;-67
2023/05/07 01:22:49;;;;;;;35.65;23.77;;;11.30;99.90;;;;;;4996490;28;20052;-67
2023/05/07 01:25:16;;;;;;;34.25;21.85;;;11.30;99.90;;;;;;4989598;28;20056;-68
2023/05/07 01:27:42;;;;;;;35.33;23.60;;;11.30;99.90;;;;;;4996348;28;20196;-67
2023/05/07 01:30:08;;;;;;;33.80;22.05;;;11.30;99.90;;;;;;4997599;28;20462;-67
2023/05/07 01:32:42;;;;;;;34.60;21.77;;;11.30;99.90;;;;;;4997748;28;20046;-68
2023/05/07 01:35:11;;;;;;;32.15;22.50;;;11.30;99.90;;;;;;4998108;28;20068;-67
2023/05/07 01:37:38;;;;;;;32.53;21.77;;;11.30;99.90;;;;;;4997131;28;20046;-67
2023/05/07 01:40:05;;;;;;;32.63;21.58;;;11.30;99.90;;;;;;4997136;28;20094;-67
2023/05/07 01:42:31;;;;;;;32.97;22.45;;;11.30;99.90;;;;;;4997650;28;20085;-66
2023/05/07 01:44:57;;;;;;;29.20;20.63;;;11.30;99.90;;;;;;4997079;28;20057;-66
2023/05/07 01:47:24;;;;;;;26.95;19.33;;;11.30;99.90;;;;;;4996965;28;20470;-66
2023/05/07 01:49:50;;;;;;;28.08;19.52;;;11.30;99.90;;;;;;4996698;28;20058;-66
2023/05/07 01:52:16;;;;;;;28.63;18.85;;;11.30;99.90;;;;;;4997216;28;20073;-66
2023/05/07 01:54:42;;;;;;;29.50;19.10;;;11.20;99.90;;;;;;4996883;28;20379;-66
2023/05/07 01:57:08;;;;;;;27.75;18.63;;;11.30;99.90;;;;;;4997028;28;20050;-67
2023/05/07 01:59:33;;;;;;;28.63;18.85;;;11.20;99.90;;;;;;4996161;28;20053;-66
2023/05/07 02:02:00;;;;;;;30.05;18.85;;;11.20;99.90;;;;;;4996555;28;20050;-65
2023/05/07 02:04:26;;;;;;;28.13;18.45;;;11.20;99.90;;;;;;4996691;28;20053;-66
2023/05/07 02:06:52;;;;;;;25.27;17.98;;;11.20;99.90;;;;;;4996691;28;20046;-66
2023/05/07 02:09:18;;;;;;;30.25;19.77;;;11.20;99.90;;;;;;4996719;28;20394;-65
2023/05/07 02:11:44;;;;;;;30.35;19.60;;;11.20;99.90;;;;;;4979433;28;20046;-66
2023/05/07 02:14:10;;;;;;;31.55;19.65;;;11.20;99.90;;;;;;4996351;28;20054;-66
2023/05/07 02:16:36;;;;;;;30.70;19.77;;;11.10;99.90;;;;;;4996480;28;20045;-66
2023/05/07 02:19:02;;;;;;;32.08;20.30;;;11.10;99.90;;;;;;4996370;28;20038;-66
2023/05/07 02:21:28;;;;;;;33.03;20.98;;;11.20;99.90;;;;;;4996379;28;20042;-66
2023/05/07 02:23:53;;;;;;;31.17;19.88;;;11.20;99.90;;;;;;4996345;28;20053;-66
2023/05/07 02:26:19;;;;;;;29.05;19.10;;;11.10;99.90;;;;;;4996295;28;20046;-66
2023/05/07 02:28:45;;;;;;;26.83;18.20;;;11.10;99.90;;;;;;4996748;28;20145;-66
2023/05/07 02:31:11;;;;;;;26.52;17.65;;;11.10;99.90;;;;;;4996211;28;20450;-66
2023/05/07 02:33:36;;;;;;;26.05;18.02;;;11.10;99.90;;;;;;4996192;28;20485;-66
2023/05/07 02:36:07;;;;;;;33.10;19.25;;;11.10;99.90;;;;;;4996863;28;20046;-65
2023/05/07 02:38:32;;;;;;;28.38;18.25;;;11.10;99.90;;;;;;4995179;28;20050;-65
2023/05/07 02:40:58;;;;;;;29.95;19.42;;;11.00;99.90;;;;;;4996123;28;20054;-65
2023/05/07 02:43:24;;;;;;;28.15;17.65;;;11.00;99.90;;;;;;4997062;28;20383;-66
2023/05/07 02:45:59;;;;;;;27.52;17.80;;;11.00;99.90;;;;;;4996477;28;20383;-66
2023/05/07 02:48:25;;;;;;;30.35;18.55;;;11.00;99.90;;;;;;4995322;28;20046;-66
2023/05/07 02:50:51;;;;;;;29.08;18.77;;;11.00;99.90;;;;;;4994416;28;20061;-66
2023/05/07 02:53:16;;;;;;;26.13;17.73;;;11.00;99.90;;;;;;4996069;28;20042;-66
2023/05/07 02:55:42;;;;;;;31.23;20.83;;;11.00;99.90;;;;;;4994583;28;20046;-66
2023/05/07 02:58:08;;;;;;;33.08;21.17;;;10.90;99.90;;;;;;4994518;28;20046;-67
2023/05/07 03:00:33;;;;;;;35.33;22.55;;;10.90;99.90;;;;;;4995631;28;20047;-66
2023/05/07 03:02:59;;;;;;;35.17;21.85;;;10.90;99.90;;;;;;4995627;28;20046;-66
2023/05/07 03:05:25;;;;;;;38.22;22.55;;;10.90;99.90;;;;;;4994608;28;20050;-69
2023/05/07 03:07:50;;;;;;;35.65;22.55;;;10.90;99.90;;;;;;4995549;28;20513;-66
2023/05/07 03:10:16;;;;;;;33.33;21.13;;;10.90;99.90;;;;;;4994662;28;20046;-66
2023/05/07 03:12:42;;;;;;;30.85;20.55;;;10.80;99.90;;;;;;4995383;28;20390;-67
2023/05/07 03:15:08;;;;;;;30.48;20.17;;;10.80;99.90;;;;;;4995379;28;20053;-69
2023/05/07 03:17:34;;;;;;;30.38;18.42;;;10.80;99.90;;;;;;4994044;28;20045;-66
2023/05/07 03:19:59;;;;;;;28.35;18.77;;;10.80;99.90;;;;;;4994290;28;20038;-67
2023/05/07 03:22:25;;;;;;;26.30;18.02;;;10.70;99.90;;;;;;4994941;28;20062;-67
2023/05/07 03:24:51;;;;;;;30.73;19.15;;;10.70;99.90;;;;;;4995503;28;20066;-66
2023/05/07 03:27:16;;;;;;;26.65;18.15;;;10.70;99.90;;;;;;4995109;28;20042;-73
2023/05/07 03:29:42;;;;;;;26.77;18.52;;;10.70;99.90;;;;;;4995150;28;20072;-67
2023/05/07 03:32:08;;;;;;;25.42;17.48;;;10.70;99.90;;;;;;4995610;28;20125;-67
2023/05/07 03:34:33;;;;;;;25.90;17.92;;;10.70;99.90;;;;;;4995581;28;20046;-67
2023/05/07 03:37:00;;;;;;;23.55;17.73;;;10.60;99.90;;;;;;4995314;28;20046;-68
2023/05/07 03:39:25;;;;;;;27.17;17.80;;;10.60;99.90;;;;;;4993658;28;20128;-67
2023/05/07 03:41:51;;;;;;;27.95;18.15;;;10.60;99.90;;;;;;4994637;28;20133;-67
2023/05/07 03:44:17;;;;;;;23.75;17.25;;;10.60;99.90;;;;;;4993252;28;20050;-67
2023/05/07 03:46:42;;;;;;;26.17;17.23;;;10.60;99.90;;;;;;4993879;28;20054;-67
2023/05/07 03:49:08;;;;;;;24.38;16.15;;;10.60;99.90;;;;;;4994799;28;20129;-68
2023/05/07 03:51:35;;;;;;;25.65;16.65;;;10.60;99.90;;;;;;4993895;28;20137;-67
2023/05/07 03:54:01;;;;;;;25.10;17.15;;;10.60;99.90;;;;;;4993709;28;20108;-67
2023/05/07 03:56:27;;;;;;;25.13;16.33;;;10.60;99.90;;;;;;4993728;28;20050;-68
2023/05/07 03:58:54;;;;;;;27.85;18.17;;;10.60;99.90;;;;;;4993339;28;20121;-68
2023/05/07 04:01:19;;;;;;;25.00;16.67;;;10.60;99.90;;;;;;4994565;28;20540;-68
2023/05/07 04:03:45;;;;;;;24.45;16.55;;;10.50;99.90;;;;;;4993773;28;20046;-68
2023/05/07 04:06:12;;;;;;;26.20;17.65;;;10.60;99.90;;;;;;4994512;28;20049;-68
2023/05/07 04:08:37;;;;;;;25.90;17.38;;;10.50;99.90;;;;;;4993493;28;20124;-68
2023/05/07 04:11:03;;;;;;;25.45;17.45;;;10.50;99.90;;;;;;4995273;28;20125;-68
2023/05/07 04:13:30;;;;;;;28.65;18.58;;;10.50;99.90;;;;;;4994163;28;20486;-68
2023/05/07 04:15:56;;;;;;;30.55;19.08;;;10.50;99.90;;;;;;4993434;28;20401;-67
2023/05/07 04:18:21;;;;;;;31.42;20.67;;;10.50;99.90;;;;;;4994315;28;20042;-67
2023/05/07 04:20:49;;;;;;;35.58;23.30;;;10.50;99.90;;;;;;4993697;28;20354;-67
2023/05/07 04:23:15;;;;;;;35.30;23.67;;;10.50;99.90;;;;;;4994316;28;20058;-67
2023/05/07 04:25:41;;;;;;;39.88;24.98;;;10.50;99.90;;;;;;4994290;28;20047;-69
2023/05/07 04:28:07;;;;;;;38.38;25.17;;;10.60;99.90;;;;;;4994236;28;20045;-68
2023/05/07 04:30:32;;;;;;;36.20;23.92;;;10.50;99.90;;;;;;4994248;28;20046;-68
2023/05/07 04:32:58;;;;;;;39.03;24.50;;;10.60;99.90;;;;;;4994199;28;20097;-69
2023/05/07 04:35:24;;;;;;;35.83;22.58;;;10.50;99.90;;;;;;4994170;28;20053;-68
2023/05/07 04:37:50;;;;;;;30.15;21.15;;;10.50;99.90;;;;;;4994128;28;20046;-68
2023/05/07 04:40:16;;;;;;;31.33;21.58;;;10.50;99.90;;;;;;4993174;28;20061;-68
2023/05/07 04:42:41;;;;;;;37.85;23.40;;;10.50;99.90;;;;;;4993682;28;20050;-68
2023/05/07 04:45:08;;;;;;;40.60;26.08;;;10.50;99.90;;;;;;4994092;28;20043;-68
2023/05/07 04:47:34;;;;;;;42.28;26.60;;;10.50;99.90;;;;;;4994046;28;20054;-68
2023/05/07 04:50:00;;;;;;;46.05;29.08;;;10.60;99.90;;;;;;4994112;28;20073;-68
2023/05/07 04:52:26;;;;;;;45.85;28.50;;;10.50;99.90;;;;;;4994665;28;20054;-68
2023/05/07 04:54:52;;;;;;;46.05;28.38;;;10.50;99.90;;;;;;4994612;28;20091;-68
2023/05/07 04:57:17;;;;;;;44.67;28.52;;;10.50;99.90;;;;;;4992790;28;20056;-68
2023/05/07 04:59:43;;;;;;;41.25;26.30;;;10.50;99.90;;;;;;4993942;28;20046;-69
2023/05/07 05:02:12;;;;;;;41.35;26.55;;;10.50;99.90;;;;;;4993948;28;20125;-68
2023/05/07 05:04:38;;;;;;;33.55;22.40;;;10.50;99.90;;;;;;4993943;28;20063;-68
2023/05/07 05:07:03;;;;;;;35.88;23.42;;;10.50;99.90;;;;;;4993438;28;20050;-68
2023/05/07 05:09:30;;;;;;;40.85;26.67;;;10.50;99.90;;;;;;4976703;28;20050;-68
2023/05/07 05:11:55;;;;;;;40.13;26.63;;;10.50;99.90;;;;;;4993851;28;20137;-69
2023/05/07 05:14:21;;;;;;;41.83;26.05;;;10.50;99.90;;;;;;4993866;28;20089;-68
2023/05/07 05:16:47;;;;;;;38.15;26.17;;;10.50;99.90;;;;;;4993854;28;20042;-68
2023/05/07 05:19:12;;;;;;;38.38;25.05;;;10.50;99.90;;;;;;4993777;28;20046;-69
2023/05/07 05:21:38;;;;;;;36.80;23.83;;;10.50;99.90;;;;;;4993850;28;20046;-68
2023/05/07 05:24:04;;;;;;;36.70;23.55;;;10.40;99.90;;;;;;4993471;28;20050;-68
2023/05/07 05:26:30;;;;;;;34.60;22.88;;;10.50;99.90;;;;;;4994233;28;20053;-75
2023/05/07 05:28:55;;;;;;;31.73;22.25;;;10.50;99.90;;;;;;4993683;28;20053;-69
2023/05/07 05:31:21;;;;;;;33.45;22.00;;;10.50;99.90;;;;;;4994211;28;20047;-69
2023/05/07 05:33:47;;;;;;;34.55;21.35;;;10.50;99.90;;;;;;4997760;28;20362;-69
2023/05/07 05:36:13;;;;;;;35.35;23.02;;;10.50;99.90;;;;;;4997228;28;20046;-69
2023/05/07 05:38:39;;;;;;;30.27;20.35;;;10.50;99.90;;;;;;4997598;28;20529;-69
2023/05/07 05:41:05;;;;;;;32.42;20.52;;;10.50;99.90;;;;;;4997092;28;20085;-69
2023/05/07 05:43:31;;;;;;;26.30;18.10;;;10.50;99.90;;;;;;4995953;28;20042;-69
2023/05/07 05:45:57;;;;;;;27.00;18.95;;;10.50;99.90;;;;;;4997964;28;20093;-69
2023/05/07 05:48:23;;;;;;;25.75;17.23;;;10.50;99.90;;;;;;4997148;28;20042;-69
2023/05/07 05:50:48;;;;;;;24.27;17.02;;;10.50;99.90;;;;;;4995701;28;20097;-70
2023/05/07 05:53:15;;;;;;;23.63;16.95;;;10.50;99.90;;;;;;4997049;28;20051;-69
2023/05/07 05:55:41;;;;;;;21.13;15.35;;;10.50;99.90;;;;;;4997538;28;20043;-70
2023/05/07 05:58:08;;;;;;;22.25;14.32;;;10.50;99.90;;;;;;4996813;28;20078;-69
2023/05/07 06:00:34;;;;;;;20.48;14.13;;;10.50;99.90;;;;;;4996577;28;20129;-76
2023/05/07 06:03:01;;;;;;;20.42;13.70;;;10.50;99.90;;;;;;4997569;28;20050;-69
2023/05/07 06:05:26;;;;;;;20.40;13.82;;;10.50;99.90;;;;;;4995777;28;20093;-69
2023/05/07 06:07:52;;;;;;;20.88;14.05;;;10.50;99.90;;;;;;4996922;28;20085;-70
2023/05/07 06:10:18;;;;;;;22.73;14.55;;;10.50;99.90;;;;;;4979508;28;20050;-69
2023/05/07 06:12:45;;;;;;;20.77;14.05;;;10.50;99.90;;;;;;4996285;28;20038;-69
2023/05/07 06:15:10;;;;;;;20.80;14.13;;;10.60;99.90;;;;;;4996870;28;20100;-71
2023/05/07 06:17:36;;;;;;;22.23;14.02;;;10.60;99.90;;;;;;4996466;28;20412;-70
2023/05/07 06:20:02;;;;;;;21.77;15.40;;;10.60;99.90;;;;;;4996756;28;20129;-68
2023/05/07 06:22:28;;;;;;;21.48;14.60;;;10.60;99.90;;;;;;4996396;28;20558;-70
2023/05/07 06:24:53;;;;;;;21.60;14.73;;;10.60;99.90;;;;;;4997180;28;20054;-71
2023/05/07 06:27:19;;;;;;;23.55;16.42;;;10.60;99.90;;;;;;4995386;28;20125;-70
2023/05/07 06:29:45;;;;;;;23.67;15.55;;;10.60;99.90;;;;;;4997052;28;20061;-69
2023/05/07 06:32:12;;;;;;;24.63;16.52;;;10.60;99.90;;;;;;4996256;28;20054;-70
2023/05/07 06:34:39;;;;;;;25.70;17.13;;;10.70;99.90;;;;;;4996239;28;20086;-70
2023/05/07 06:37:05;;;;;;;22.10;15.52;;;10.70;99.90;;;;;;4996221;28;20058;-72
2023/05/07 06:39:31;;;;;;;21.05;16.25;;;10.70;99.90;;;;;;4994480;28;20104;-70
2023/05/07 06:41:57;;;;;;;24.25;15.75;;;10.70;99.90;;;;;;4996580;28;20133;-71
2023/05/07 06:44:22;;;;;;;24.05;15.43;;;10.70;99.90;;;;;;4995017;28;20132;-70
2023/05/07 06:46:48;;;;;;;22.52;15.38;;;10.70;99.90;;;;;;4995958;28;20101;-72
2023/05/07 06:49:14;;;;;;;22.13;15.13;;;10.80;99.90;;;;;;4995641;28;20050;-70
2023/05/07 06:51:40;;;;;;;26.70;17.05;;;10.80;99.90;;;;;;4994769;28;20148;-72
2023/05/07 06:54:06;;;;;;;28.17;18.73;;;10.80;99.90;;;;;;4995844;28;20094;-70
2023/05/07 06:56:32;;;;;;;25.13;17.58;;;10.80;99.90;;;;;;4995122;28;20493;-71
2023/05/07 06:59:00;;;;;;;27.88;19.67;;;10.80;99.90;;;;;;4995604;28;20050;-70
2023/05/07 07:01:25;;;;;;;26.63;18.67;;;10.80;99.90;;;;;;4995631;28;20054;-71
2023/05/07 07:03:51;;;;;;;28.95;18.35;;;10.90;99.90;;;;;;4995635;28;20042;-72
2023/05/07 07:06:17;;;;;;;23.23;17.00;;;10.90;99.90;;;;;;4995571;28;20038;-70
2023/05/07 07:08:43;;;;;;;25.73;17.45;;;10.90;99.90;;;;;;4994533;28;20054;-71
2023/05/07 07:11:11;;;;;;;23.83;16.55;;;11.00;99.90;;;;;;4996014;28;20050;-72
2023/05/07 07:13:36;;;;;;;24.33;16.15;;;11.00;99.90;;;;;;4996036;28;20047;-71
2023/05/07 07:16:03;;;;;;;22.50;15.98;;;11.10;99.90;;;;;;4996527;28;20046;-70
2023/05/07 07:18:28;;;;;;;21.77;14.80;;;11.10;99.90;;;;;;4995265;28;20042;-70
2023/05/07 07:20:54;;;;;;;21.38;15.30;;;11.10;99.90;;;;;;4995336;28;20111;-72
2023/05/07 07:23:20;;;;;;;19.77;14.48;;;11.20;99.90;;;;;;4995579;28;20046;-71
2023/05/07 07:25:46;;;;;;;24.20;15.30;;;11.20;99.90;;;;;;4995300;28;20086;-72
2023/05/07 07:28:12;;;;;;;20.48;14.15;;;11.20;99.90;;;;;;4994387;28;20050;-72
2023/05/07 07:30:39;;;;;;;21.80;14.05;;;11.30;99.90;;;;;;4995103;28;20046;-71
2023/05/07 07:33:05;;;;;;;21.27;14.35;;;11.30;99.90;;;;;;4995080;28;20066;-72
2023/05/07 07:35:34;;;;;;;23.40;14.73;;;11.30;99.90;;;;;;4995096;28;20379;-71
2023/05/07 07:38:01;;;;;;;21.40;14.00;;;11.30;99.90;;;;;;4993777;28;20082;-71
2023/05/07 07:40:27;;;;;;;20.50;14.10;;;11.40;99.90;;;;;;4994931;28;20449;-72
2023/05/07 07:42:53;;;;;;;22.38;14.85;;;11.40;99.90;;;;;;4995551;28;20042;-74
2023/05/07 07:45:19;;;;;;;20.02;13.63;;;11.40;99.90;;;;;;4995463;28;20104;-73
2023/05/07 07:47:45;;;;;;;21.25;14.35;;;11.40;99.90;;;;;;4995361;28;20058;-72
2023/05/07 07:50:11;;;;;;;21.63;14.13;;;11.40;99.90;;;;;;4994526;28;20046;-73
2023/05/07 07:52:36;;;;;;;23.90;14.65;;;11.50;99.90;;;;;;4994809;28;20054;-72
2023/05/07 07:55:03;;;;;;;20.85;15.02;;;11.50;99.90;;;;;;4994508;28;20042;-71
2023/05/07 07:57:28;;;;;;;25.00;15.02;;;11.50;99.90;;;;;;4994620;28;20058;-73
2023/05/07 07:59:54;;;;;;;23.27;15.90;;;11.60;99.90;;;;;;4977450;28;20046;-71
2023/05/07 08:02:20;;;;;;;23.73;16.08;;;11.60;99.90;;;;;;4994699;28;20046;-72
2023/05/07 08:04:46;;;;;;;22.50;14.48;;;11.70;99.90;;;;;;4977423;28;20394;-78
2023/05/07 08:07:12;;;;;;;21.50;14.80;;;11.60;99.90;;;;;;4995140;28;20046;-74
2023/05/07 08:09:38;;;;;;;21.08;14.57;;;11.70;99.90;;;;;;4995245;28;20046;-74
2023/05/07 08:12:05;;;;;;;21.08;14.57;;;11.80;99.90;;;;;;4994565;28;20072;-71
2023/05/07 08:14:31;;;;;;;21.65;14.13;;;11.80;99.90;;;;;;4994552;28;20081;-73
2023/05/07 08:16:57;;;;;;;19.80;14.00;;;11.90;99.90;;;;;;4994536;28;20128;-72
2023/05/07 08:19:23;;;;;;;21.80;14.82;;;11.90;99.90;;;;;;4994454;28;20046;-71
2023/05/07 08:21:48;;;;;;;21.02;14.40;;;11.90;99.90;;;;;;4994431;28;20133;-71
2023/05/07 08:24:14;;;;;;;21.33;14.18;;;12.00;99.90;;;;;;4994260;28;20082;-75
2023/05/07 08:26:41;;;;;;;20.75;14.30;;;12.10;99.90;;;;;;4993477;28;20130;-70
2023/05/07 08:29:07;;;;;;;22.15;14.85;;;12.10;99.90;;;;;;4995130;28;20421;-72
2023/05/07 08:31:33;;;;;;;21.38;13.85;;;12.10;99.90;;;;;;4994317;28;20101;-71
2023/05/07 08:33:59;;;;;;;20.65;14.15;;;12.20;99.90;;;;;;4994393;28;20046;-72
2023/05/07 08:36:25;;;;;;;23.02;13.48;;;12.20;99.90;;;;;;4994413;28;20090;-70
2023/05/07 08:38:52;;;;;;;18.67;12.45;;;12.20;99.90;;;;;;4994198;28;20053;-69
2023/05/07 08:41:18;;;;;;;20.83;13.55;;;12.20;99.90;;;;;;4993515;28;20054;-73
2023/05/07 08:43:49;;;;;;;19.38;13.55;;;12.20;99.90;;;;;;4994152;28;20061;-73
2023/05/07 08:46:21;;;;;;;21.67;13.80;;;12.20;99.90;;;;;;4993574;28;20054;-72
2023/05/07 08:48:50;;;;;;;20.00;13.48;;;12.30;99.90;;;;;;4995107;28;20125;-74
2023/05/07 08:51:19;;;;;;;21.13;13.38;;;12.30;99.90;;;;;;4993723;28;20062;-72
2023/05/07 08:53:48;;;;;;;19.05;12.48;;;12.30;99.90;;;;;;4994117;28;20085;-74
2023/05/07 08:56:15;;;;;;;19.05;13.73;;;12.40;99.90;;;;;;4992948;28;20402;-72
2023/05/07 08:58:41;;;;;;;17.08;12.60;;;12.40;99.90;;;;;;4993641;28;20050;-71
2023/05/07 09:01:10;;;;;;;17.92;13.20;;;12.50;99.90;;;;;;4994141;28;20046;-73
2023/05/07 09:03:38;;;;;;;16.27;11.95;;;12.50;99.90;;;;;;4994121;28;20073;-71
2023/05/07 09:06:05;;;;;;;18.77;12.45;;;12.70;99.90;;;;;;4994669;28;20058;-71
2023/05/07 09:08:33;;;;;;;15.57;11.75;;;12.70;99.90;;;;;;4997370;28;20081;-74
2023/05/07 09:10:59;;;;;;;18.58;12.30;;;12.80;99.90;;;;;;4997922;28;20375;-75
2023/05/07 09:13:27;;;;;;;16.42;11.68;;;12.90;99.90;;;;;;4997756;28;20057;-74
2023/05/07 09:15:52;;;;;;;17.38;12.55;;;12.90;99.90;;;;;;4997645;28;20053;-74
2023/05/07 09:18:18;;;;;;;16.83;11.65;;;13.00;99.90;;;;;;4996542;28;20397;-75
2023/05/07 09:20:44;;;;;;;16.50;11.43;;;13.00;99.90;;;;;;4997591;28;20042;-74
2023/05/07 09:23:10;;;;;;;17.17;11.68;;;13.00;99.90;;;;;;4997527;28;20049;-73
2023/05/07 09:25:36;;;;;;;16.60;11.45;;;13.10;99.90;;;;;;4998206;28;20552;-74
2023/05/07 09:28:03;;;;;;;16.90;11.40;;;13.10;99.90;;;;;;4997383;28;20046;-74
2023/05/07 09:30:33;;;;;;;14.50;11.32;;;13.10;99.90;;;;;;4997471;28;20442;-73
2023/05/07 09:33:00;;;;;;;14.93;11.13;;;13.10;99.90;;;;;;4996037;28;20461;-74
2023/05/07 09:35:29;;;;;;;16.73;11.48;;;13.10;99.90;;;;;;4996928;28;20535;-74
2023/05/07 09:37:56;;;;;;;15.27;11.70;;;13.10;99.90;;;;;;4996830;28;20117;-73
2023/05/07 09:40:31;;;;;;;15.55;11.35;;;13.20;99.90;;;;;;4997143;28;20050;-73
2023/05/07 09:43:08;;;;;;;13.70;10.65;;;13.20;99.90;;;;;;4996800;28;20046;-72
2023/05/07 09:45:33;;;;;;;15.30;11.48;;;13.30;99.90;;;;;;4998036;28;20407;-73
2023/05/07 09:48:19;;;;;;;15.40;11.30;;;13.30;99.90;;;;;;4996818;28;20133;-74
2023/05/07 09:51:19;;;;;;;15.02;11.05;;;13.40;99.90;;;;;;4996027;28;20121;-73
2023/05/07 09:53:48;;;;;;;14.40;10.95;;;13.50;99.90;;;;;;4979156;28;20062;-72
2023/05/07 09:56:17;;;;;;;15.27;11.00;;;13.30;99.90;;;;;;4994713;28;20062;-69
2023/05/07 09:58:43;;;;;;;15.07;10.30;;;13.70;99.90;;;;;;4996753;28;20038;-67
2023/05/07 10:01:11;;;;;;;13.98;11.20;;;13.70;99.90;;;;;;4997406;28;20058;-68
2023/05/07 10:03:39;;;;;;;16.75;11.55;;;13.80;99.90;;;;;;4980199;28;20530;-67
2023/05/07 10:06:05;;;;;;;14.95;11.07;;;13.80;99.90;;;;;;4995654;28;20207;-68
2023/05/07 10:08:31;;;;;;;13.77;10.73;;;13.90;99.90;;;;;;4997016;28;20042;-68
2023/05/07 10:10:57;;;;;;;17.10;10.80;;;14.00;99.90;;;;;;4996783;28;20050;-68
2023/05/07 10:13:24;;;;;;;15.77;11.27;;;14.00;99.90;;;;;;4996954;28;20069;-68
2023/05/07 10:15:50;;;;;;;12.85;10.38;;;14.10;99.90;;;;;;4995890;28;20442;-68
2023/05/07 10:18:18;;;;;;;13.23;10.55;;;14.20;99.90;;;;;;4995299;28;20404;-68
2023/05/07 10:20:46;;;;;;;15.57;10.63;;;14.30;99.90;;;;;;4997002;28;20477;-68
2023/05/07 10:23:15;;;;;;;14.07;10.32;;;14.50;99.90;;;;;;4995285;28;20046;-66
2023/05/07 10:25:41;;;;;;;12.13;9.93;;;14.50;99.90;;;;;;4995762;28;20455;-67
2023/05/07 10:28:10;;;;;;;13.95;10.27;;;14.50;99.90;;;;;;4995645;28;20132;-66
2023/05/07 10:30:54;;;;;;;11.88;9.60;;;14.50;99.90;;;;;;4996352;28;20048;-66
2023/05/07 10:33:25;;;;;;;13.80;10.25;;;14.50;99.90;;;;;;4996307;28;20050;-67
2023/05/07 10:35:51;;;;;;;11.20;9.75;;;14.50;99.90;;;;;;4996614;28;20108;-66
2023/05/07 10:38:17;;;;;;;11.32;9.55;;;14.60;99.90;;;;;;4979782;28;20421;-68
2023/05/07 10:40:43;;;;;;;12.23;10.07;;;14.60;99.90;;;;;;4996165;28;20050;-66
2023/05/07 10:43:10;;;;;;;13.48;10.20;;;14.70;99.90;;;;;;4994867;28;20141;-66
2023/05/07 10:45:35;;;;;;;11.73;9.80;;;14.70;99.90;;;;;;4995368;28;20057;-66
2023/05/07 10:48:14;;;;;;;11.98;9.85;;;14.80;99.90;;;;;;4995514;28;20042;-66
2023/05/07 10:50:41;;;;;;;11.65;10.07;;;14.90;99.90;;;;;;4995920;28;20050;-66
2023/05/07 10:53:19;;;;;;;11.23;9.20;;;15.00;99.90;;;;;;4995999;28;20057;-66
2023/05/07 10:55:49;;;;;;;11.15;9.13;;;15.00;99.90;;;;;;4996360;28;20485;-66
2023/05/07 10:58:21;;;;;;;10.80;9.45;;;15.10;99.90;;;;;;4994248;28;20579;-66
2023/05/07 11:00:48;;;;;;;12.13;9.50;;;15.20;99.90;;;;;;4996747;28;20390;-66
2023/05/07 11:03:14;;;;;;;11.02;9.40;;;15.20;99.90;;;;;;4995809;28;20092;-66
2023/05/07 11:05:41;;;;;;;13.15;9.82;;;15.20;99.90;;;;;;4995806;28;20050;-66
2023/05/07 11:08:08;;;;;;;12.02;10.15;;;15.30;99.90;;;;;;4995677;28;20050;-66
2023/05/07 11:10:54;;;;;;;11.23;9.38;;;15.30;99.90;;;;;;4995605;28;20077;-67
2023/05/07 11:13:50;;;;;;;12.73;10.80;;;15.30;99.90;;;;;;4996290;28;20042;-66
2023/05/07 11:16:23;;;;;;;12.68;10.00;;;15.40;99.90;;;;;;4995557;28;20046;-67
2023/05/07 11:18:54;;;;;;;10.75;9.55;;;15.40;99.90;;;;;;4995422;28;20039;-68
2023/05/07 11:21:40;;;;;;;10.45;9.35;;;15.50;99.90;;;;;;4995468;28;20432;-66
2023/05/07 11:24:07;;;;;;;11.35;9.27;;;15.50;99.90;;;;;;4996035;28;20058;-66
2023/05/07 11:26:47;;;;;;;12.30;10.20;;;15.50;99.90;;;;;;4995286;28;20119;-66
2023/05/07 11:29:21;;;;;;;15.10;9.57;;;15.60;99.90;;;;;;4994986;28;20049;-66
2023/05/07 11:31:54;;;;;;;12.32;10.70;;;15.70;99.90;;;;;;4995166;28;20057;-66
2023/05/07 11:34:24;;;;;;;13.25;11.77;;;15.70;99.90;;;;;;4995447;28;20119;-67
2023/05/07 11:36:50;;;;;;;14.90;12.25;;;15.80;99.90;;;;;;4995174;28;20100;-66
2023/05/07 11:39:26;;;;;;;13.98;12.00;;;15.80;99.90;;;;;;4993699;28;20496;-67
2023/05/07 11:41:52;;;;;;;14.02;12.50;;;15.80;99.90;;;;;;4995393;28;20429;-66
2023/05/07 11:44:18;;;;;;;14.85;12.02;;;15.70;99.90;;;;;;4994981;28;20100;-66
2023/05/07 11:46:45;;;;;;;15.27;12.30;;;15.70;99.90;;;;;;4995327;28;20038;-66
2023/05/07 11:49:11;;;;;;;12.63;11.32;;;15.70;99.90;;;;;;4994979;28;20173;-66
2023/05/07 11:51:36;;;;;;;13.05;10.45;;;15.70;99.90;;;;;;4994874;28;20050;-66
2023/05/07 11:54:08;;;;;;;11.27;10.10;;;15.70;99.90;;;;;;4994895;28;20478;-66
2023/05/07 11:56:35;;;;;;;13.45;11.57;;;15.70;99.90;;;;;;4993832;28;20062;-68
2023/05/07 11:59:01;;;;;;;12.73;11.32;;;15.70;99.90;;;;;;4994909;28;20386;-67
2023/05/07 12:01:26;;;;;;;12.60;10.82;;;15.70;99.90;;;;;;4977474;28;20046;-68
2023/05/07 12:03:52;;;;;;;13.00;11.25;;;15.60;99.90;;;;;;4994752;28;20042;-68
2023/05/07 12:06:18;;;;;;;12.88;10.57;;;15.70;99.90;;;;;;4994655;28;20486;-67
2023/05/07 12:08:45;;;;;;;13.02;10.68;;;15.70;99.90;;;;;;4994605;28;20050;-69
2023/05/07 12:11:18;;;;;;;13.00;11.43;;;15.70;99.90;;;;;;4994838;28;20545;-67
2023/05/07 12:13:44;;;;;;;13.73;10.88;;;15.80;99.90;;;;;;4994512;28;20046;-67
2023/05/07 12:16:10;;;;;;;12.70;11.40;;;15.80;99.90;;;;;;4994527;28;20050;-66
2023/05/07 12:18:37;;;;;;;11.15;9.95;;;15.90;99.90;;;;;;4993328;28;20120;-68
2023/05/07 12:21:04;;;;;;;13.50;11.40;;;15.90;99.90;;;;;;4995021;28;20046;-67
2023/05/07 12:23:30;;;;;;;13.60;10.75;;;16.00;99.90;;;;;;4994434;28;20505;-67
2023/05/07 12:25:56;;;;;;;12.32;11.02;;;16.10;99.90;;;;;;4993435;28;20051;-67
2023/05/07 12:28:21;;;;;;;12.80;11.05;;;16.20;99.90;;;;;;4994212;28;20042;-68